sensor_id;sensor_type;location;lat;lon;timestamp;temperature;humidity
68011;DHT22;54794;48.348;7.878;2023-05-10T00:00:13;18.70;65.70
68011;DHT22;54794;48.348;7.878;2023-05-10T00:02:41;18.70;65.80
68011;DHT22;54794;48.348;7.878;2023-05-10T00:05:08;18.70;65.80
68011;DHT22;54794;48.348;7.878;2023-05-10T00:07:36;18.70;65.80
68011;DHT22;54794;48.348;7.878;2023-05-10T00:10:04;18.70;65.70
68011;DHT22;54794;48.348;7.878;2023-05-10T00:12:31;18.70;65.70
68011;DHT22;54794;48.348;7.878;2023-05-10T00:14:59;18.70;65.70
68011;DHT22;54794;48.348;7.878;2023-05-10T00:17:27;18.70;65.70
68011;DHT22;54794;48.348;7.878;2023-05-10T00:20:14;18.70;65.70
68011;DHT22;54794;48.348;7.878;2023-05-10T00:22:50;18.70;65.60
68011;DHT22;54794;48.348;7.878;2023-05-10T00:25:20;18.60;65.60
68011;DHT22;54794;48.348;7.878;2023-05-10T00:27:59;18.70;65.60
68011;DHT22;54794;48.348;7.878;2023-05-10T00:30:46;18.70;66.10
68011;DHT22;54794;48.348;7.878;2023-05-10T00:33:36;18.60;65.70
68011;DHT22;54794;48.348;7.878;2023-05-10T00:36:14;18.60;65.60
68011;DHT22;54794;48.348;7.878;2023-05-10T00:38:41;18.60;65.60
68011;DHT22;54794;48.348;7.878;2023-05-10T00:41:08;18.60;65.70
68011;DHT22;54794;48.348;7.878;2023-05-10T00:43:36;18.60;65.60
68011;DHT22;54794;48.348;7.878;2023-05-10T00:46:04;18.60;65.70
68011;DHT22;54794;48.348;7.878;2023-05-10T00:48:42;18.60;65.80
68011;DHT22;54794;48.348;7.878;2023-05-10T00:51:10;18.60;65.80
68011;DHT22;54794;48.348;7.878;2023-05-10T00:53:37;18.60;65.70
68011;DHT22;54794;48.348;7.878;2023-05-10T00:56:05;18.60;66.30
68011;DHT22;54794;48.348;7.878;2023-05-10T00:58:33;18.60;65.80
68011;DHT22;54794;48.348;7.878;2023-05-10T01:01:00;18.60;65.70
68011;DHT22;54794;48.348;7.878;2023-05-10T01:03:34;18.70;66.00
68011;DHT22;54794;48.348;7.878;2023-05-10T01:06:25;18.70;65.60
68011;DHT22;54794;48.348;7.878;2023-05-10T01:09:00;18.50;65.50
68011;DHT22;54794;48.348;7.878;2023-05-10T01:11:40;18.60;65.70
68011;DHT22;54794;48.348;7.878;2023-05-10T01:14:22;18.60;66.00
68011;DHT22;54794;48.348;7.878;2023-05-10T01:16:56;18.60;65.80
68011;DHT22;54794;48.348;7.878;2023-05-10T01:19:30;18.60;65.90
68011;DHT22;54794;48.348;7.878;2023-05-10T01:34:35;18.60;66.20
68011;DHT22;54794;48.348;7.878;2023-05-10T01:37:33;18.60;66.10
68011;DHT22;54794;48.348;7.878;2023-05-10T01:40:48;18.60;66.30
68011;DHT22;54794;48.348;7.878;2023-05-10T01:43:49;18.60;66.50
68011;DHT22;54794;48.348;7.878;2023-05-10T01:46:38;18.50;66.10
68011;DHT22;54794;48.348;7.878;2023-05-10T01:49:29;18.50;66.30
68011;DHT22;54794;48.348;7.878;2023-05-10T01:52:22;18.50;66.30
68011;DHT22;54794;48.348;7.878;2023-05-10T01:55:01;18.50;66.20
68011;DHT22;54794;48.348;7.878;2023-05-10T01:57:36;18.50;66.30
68011;DHT22;54794;48.348;7.878;2023-05-10T02:00:07;18.50;66.30
68011;DHT22;54794;48.348;7.878;2023-05-10T02:02:41;18.50;66.10
68011;DHT22;54794;48.348;7.878;2023-05-10T02:05:13;18.50;66.30
68011;DHT22;54794;48.348;7.878;2023-05-10T02:07:42;18.50;66.20
68011;DHT22;54794;48.348;7.878;2023-05-10T02:10:11;18.50;66.10
68011;DHT22;54794;48.348;7.878;2023-05-10T02:12:44;18.50;66.20
68011;DHT22;54794;48.348;7.878;2023-05-10T02:15:20;18.50;66.70
68011;DHT22;54794;48.348;7.878;2023-05-10T02:17:50;18.50;66.20
68011;DHT22;54794;48.348;7.878;2023-05-10T02:20:20;18.50;66.20
68011;DHT22;54794;48.348;7.878;2023-05-10T02:22:52;18.50;66.20
68011;DHT22;54794;48.348;7.878;2023-05-10T02:25:23;18.40;66.20
68011;DHT22;54794;48.348;7.878;2023-05-10T02:27:54;18.40;66.40
68011;DHT22;54794;48.348;7.878;2023-05-10T02:30:24;18.40;66.30
68011;DHT22;54794;48.348;7.878;2023-05-10T02:32:52;18.40;66.20
68011;DHT22;54794;48.348;7.878;2023-05-10T02:35:20;18.40;66.20
68011;DHT22;54794;48.348;7.878;2023-05-10T02:37:50;18.40;66.20
68011;DHT22;54794;48.348;7.878;2023-05-10T02:40:18;18.40;66.30
68011;DHT22;54794;48.348;7.878;2023-05-10T02:42:48;18.40;66.30
68011;DHT22;54794;48.348;7.878;2023-05-10T02:45:21;18.30;66.30
68011;DHT22;54794;48.348;7.878;2023-05-10T02:47:52;18.30;66.40
68011;DHT22;54794;48.348;7.878;2023-05-10T02:50:19;18.30;66.30
68011;DHT22;54794;48.348;7.878;2023-05-10T02:52:52;18.30;66.30
68011;DHT22;54794;48.348;7.878;2023-05-10T02:55:26;18.30;66.40
68011;DHT22;54794;48.348;7.878;2023-05-10T02:58:02;18.30;66.50
68011;DHT22;54794;48.348;7.878;2023-05-10T03:00:30;18.30;66.30
68011;DHT22;54794;48.348;7.878;2023-05-10T03:02:57;18.30;66.40
68011;DHT22;54794;48.348;7.878;2023-05-10T03:05:24;18.30;66.60
68011;DHT22;54794;48.348;7.878;2023-05-10T03:07:52;18.30;66.30
68011;DHT22;54794;48.348;7.878;2023-05-10T03:10:22;18.30;66.40
68011;DHT22;54794;48.348;7.878;2023-05-10T03:15:59;18.20;66.90
68011;DHT22;54794;48.348;7.878;2023-05-10T03:18:50;18.20;66.60
68011;DHT22;54794;48.348;7.878;2023-05-10T03:21:22;18.20;66.70
68011;DHT22;54794;48.348;7.878;2023-05-10T03:24:02;18.20;66.50
68011;DHT22;54794;48.348;7.878;2023-05-10T03:26:51;18.20;66.70
68011;DHT22;54794;48.348;7.878;2023-05-10T03:29:39;18.10;66.60
68011;DHT22;54794;48.348;7.878;2023-05-10T03:32:15;18.10;66.60
68011;DHT22;54794;48.348;7.878;2023-05-10T03:34:53;18.10;66.50
68011;DHT22;54794;48.348;7.878;2023-05-10T03:37:38;18.10;66.60
68011;DHT22;54794;48.348;7.878;2023-05-10T03:40:11;18.10;66.80
68011;DHT22;54794;48.348;7.878;2023-05-10T03:42:44;18.10;66.60
68011;DHT22;54794;48.348;7.878;2023-05-10T03:45:38;18.10;66.70
68011;DHT22;54794;48.348;7.878;2023-05-10T03:48:25;17.90;66.70
68011;DHT22;54794;48.348;7.878;2023-05-10T03:51:15;18.10;66.80
68011;DHT22;54794;48.348;7.878;2023-05-10T03:53:59;18.10;66.70
68011;DHT22;54794;48.348;7.878;2023-05-10T03:56:45;18.10;66.80
68011;DHT22;54794;48.348;7.878;2023-05-10T03:59:25;18.00;67.10
68011;DHT22;54794;48.348;7.878;2023-05-10T04:02:21;18.00;66.80
68011;DHT22;54794;48.348;7.878;2023-05-10T04:05:02;18.00;66.80
68011;DHT22;54794;48.348;7.878;2023-05-10T04:07:36;18.00;66.80
68011;DHT22;54794;48.348;7.878;2023-05-10T04:10:11;18.00;66.80
68011;DHT22;54794;48.348;7.878;2023-05-10T04:12:50;18.00;66.90
68011;DHT22;54794;48.348;7.878;2023-05-10T04:15:23;18.00;66.90
68011;DHT22;54794;48.348;7.878;2023-05-10T04:18:09;17.90;66.90
68011;DHT22;54794;48.348;7.878;2023-05-10T04:20:39;18.00;66.90
68011;DHT22;54794;48.348;7.878;2023-05-10T04:23:13;18.00;66.90
68011;DHT22;54794;48.348;7.878;2023-05-10T04:25:50;18.00;67.00
68011;DHT22;54794;48.348;7.878;2023-05-10T04:28:28;18.00;67.20
68011;DHT22;54794;48.348;7.878;2023-05-10T04:31:08;17.90;66.90
68011;DHT22;54794;48.348;7.878;2023-05-10T04:33:36;18.00;67.20
68011;DHT22;54794;48.348;7.878;2023-05-10T04:36:03;17.90;67.50
68011;DHT22;54794;48.348;7.878;2023-05-10T04:38:31;18.00;67.00
68011;DHT22;54794;48.348;7.878;2023-05-10T04:41:06;17.90;66.90
68011;DHT22;54794;48.348;7.878;2023-05-10T04:43:34;17.90;67.20
68011;DHT22;54794;48.348;7.878;2023-05-10T04:46:02;17.90;67.00
68011;DHT22;54794;48.348;7.878;2023-05-10T04:48:29;18.00;67.10
68011;DHT22;54794;48.348;7.878;2023-05-10T04:50:56;18.00;67.20
68011;DHT22;54794;48.348;7.878;2023-05-10T04:53:23;17.90;67.10
68011;DHT22;54794;48.348;7.878;2023-05-10T04:55:50;18.00;67.00
68011;DHT22;54794;48.348;7.878;2023-05-10T04:58:17;18.00;67.10
68011;DHT22;54794;48.348;7.878;2023-05-10T05:00:44;17.90;67.10
68011;DHT22;54794;48.348;7.878;2023-05-10T05:03:11;17.90;67.10
68011;DHT22;54794;48.348;7.878;2023-05-10T05:05:38;18.00;67.20
68011;DHT22;54794;48.348;7.878;2023-05-10T05:08:05;17.90;67.20
68011;DHT22;54794;48.348;7.878;2023-05-10T05:10:32;18.00;67.20
68011;DHT22;54794;48.348;7.878;2023-05-10T05:12:59;18.00;67.20
68011;DHT22;54794;48.348;7.878;2023-05-10T05:15:29;18.00;67.80
68011;DHT22;54794;48.348;7.878;2023-05-10T05:18:00;18.00;67.40
68011;DHT22;54794;48.348;7.878;2023-05-10T05:20:27;18.00;67.40
68011;DHT22;54794;48.348;7.878;2023-05-10T05:23:00;18.00;67.90
68011;DHT22;54794;48.348;7.878;2023-05-10T05:25:40;18.00;67.50
68011;DHT22;54794;48.348;7.878;2023-05-10T05:28:18;18.00;67.40
68011;DHT22;54794;48.348;7.878;2023-05-10T05:30:56;18.00;67.40
68011;DHT22;54794;48.348;7.878;2023-05-10T05:33:33;18.00;67.40
68011;DHT22;54794;48.348;7.878;2023-05-10T05:36:04;18.00;67.40
68011;DHT22;54794;48.348;7.878;2023-05-10T05:39:10;17.90;67.40
68011;DHT22;54794;48.348;7.878;2023-05-10T05:41:43;18.00;67.30
68011;DHT22;54794;48.348;7.878;2023-05-10T05:44:10;18.00;67.30
68011;DHT22;54794;48.348;7.878;2023-05-10T05:46:39;18.00;67.40
68011;DHT22;54794;48.348;7.878;2023-05-10T05:49:27;18.00;67.40
68011;DHT22;54794;48.348;7.878;2023-05-10T05:52:04;18.00;67.40
68011;DHT22;54794;48.348;7.878;2023-05-10T05:54:53;18.00;67.50
68011;DHT22;54794;48.348;7.878;2023-05-10T05:57:33;18.00;67.50
68011;DHT22;54794;48.348;7.878;2023-05-10T06:00:24;18.00;67.60
68011;DHT22;54794;48.348;7.878;2023-05-10T06:02:58;18.00;67.50
68011;DHT22;54794;48.348;7.878;2023-05-10T06:05:32;18.00;67.50
68011;DHT22;54794;48.348;7.878;2023-05-10T06:08:03;18.00;67.50
68011;DHT22;54794;48.348;7.878;2023-05-10T06:10:42;18.00;67.60
68011;DHT22;54794;48.348;7.878;2023-05-10T06:13:08;18.00;67.70
68011;DHT22;54794;48.348;7.878;2023-05-10T06:15:36;18.00;68.20
68011;DHT22;54794;48.348;7.878;2023-05-10T06:18:03;18.00;67.80
68011;DHT22;54794;48.348;7.878;2023-05-10T06:20:31;18.00;67.40
68011;DHT22;54794;48.348;7.878;2023-05-10T06:22:59;18.00;67.50
68011;DHT22;54794;48.348;7.878;2023-05-10T06:25:26;18.00;67.60
68011;DHT22;54794;48.348;7.878;2023-05-10T06:27:53;18.00;67.70
68011;DHT22;54794;48.348;7.878;2023-05-10T06:30:25;18.00;67.80
68011;DHT22;54794;48.348;7.878;2023-05-10T06:32:54;18.00;67.80
68011;DHT22;54794;48.348;7.878;2023-05-10T06:35:22;18.00;67.80
68011;DHT22;54794;48.348;7.878;2023-05-10T06:37:50;18.00;67.80
68011;DHT22;54794;48.348;7.878;2023-05-10T06:40:18;18.00;67.80
68011;DHT22;54794;48.348;7.878;2023-05-10T06:42:46;18.00;67.80
68011;DHT22;54794;48.348;7.878;2023-05-10T06:45:15;18.00;67.90
68011;DHT22;54794;48.348;7.878;2023-05-10T06:47:43;18.00;67.80
68011;DHT22;54794;48.348;7.878;2023-05-10T06:50:10;18.00;67.80
68011;DHT22;54794;48.348;7.878;2023-05-10T06:52:38;18.00;67.90
68011;DHT22;54794;48.348;7.878;2023-05-10T06:55:05;18.00;67.90
68011;DHT22;54794;48.348;7.878;2023-05-10T06:57:33;18.00;68.20
68011;DHT22;54794;48.348;7.878;2023-05-10T07:00:00;18.10;67.80
68011;DHT22;54794;48.348;7.878;2023-05-10T07:02:27;18.10;67.80
68011;DHT22;54794;48.348;7.878;2023-05-10T07:04:54;18.10;68.10
68011;DHT22;54794;48.348;7.878;2023-05-10T07:07:21;18.10;67.60
68011;DHT22;54794;48.348;7.878;2023-05-10T07:09:48;18.10;67.80
68011;DHT22;54794;48.348;7.878;2023-05-10T07:12:16;18.10;67.80
68011;DHT22;54794;48.348;7.878;2023-05-10T07:14:43;18.10;68.10
68011;DHT22;54794;48.348;7.878;2023-05-10T07:17:12;18.10;68.10
68011;DHT22;54794;48.348;7.878;2023-05-10T07:19:39;18.10;68.00
68011;DHT22;54794;48.348;7.878;2023-05-10T07:22:05;18.10;68.00
68011;DHT22;54794;48.348;7.878;2023-05-10T07:24:33;18.10;67.90
68011;DHT22;54794;48.348;7.878;2023-05-10T07:27:00;18.10;67.90
68011;DHT22;54794;48.348;7.878;2023-05-10T07:29:27;18.20;68.10
68011;DHT22;54794;48.348;7.878;2023-05-10T07:31:55;18.20;68.70
68011;DHT22;54794;48.348;7.878;2023-05-10T07:34:24;18.20;68.10
68011;DHT22;54794;48.348;7.878;2023-05-10T07:36:52;18.20;68.20
68011;DHT22;54794;48.348;7.878;2023-05-10T07:39:19;18.30;68.40
68011;DHT22;54794;48.348;7.878;2023-05-10T07:41:54;18.30;68.80
68011;DHT22;54794;48.348;7.878;2023-05-10T07:44:22;18.40;68.40
68011;DHT22;54794;48.348;7.878;2023-05-10T07:46:50;18.40;68.50
68011;DHT22;54794;48.348;7.878;2023-05-10T07:49:17;18.50;68.50
68011;DHT22;54794;48.348;7.878;2023-05-10T07:51:44;18.50;68.20
68011;DHT22;54794;48.348;7.878;2023-05-10T07:54:11;18.50;68.00
68011;DHT22;54794;48.348;7.878;2023-05-10T07:56:39;18.60;67.80
68011;DHT22;54794;48.348;7.878;2023-05-10T07:59:08;18.60;67.70
68011;DHT22;54794;48.348;7.878;2023-05-10T08:01:38;18.60;67.70
68011;DHT22;54794;48.348;7.878;2023-05-10T08:04:04;18.60;67.60
68011;DHT22;54794;48.348;7.878;2023-05-10T08:06:31;18.60;68.00
68011;DHT22;54794;48.348;7.878;2023-05-10T08:08:58;18.60;67.60
68011;DHT22;54794;48.348;7.878;2023-05-10T08:11:25;18.60;67.70
68011;DHT22;54794;48.348;7.878;2023-05-10T08:13:54;18.60;67.40
68011;DHT22;54794;48.348;7.878;2023-05-10T08:16:21;18.60;67.40
68011;DHT22;54794;48.348;7.878;2023-05-10T08:18:48;18.60;67.40
68011;DHT22;54794;48.348;7.878;2023-05-10T08:21:17;18.70;67.60
68011;DHT22;54794;48.348;7.878;2023-05-10T08:23:44;18.70;67.80
68011;DHT22;54794;48.348;7.878;2023-05-10T08:26:11;18.70;68.00
68011;DHT22;54794;48.348;7.878;2023-05-10T08:28:38;18.70;67.80
68011;DHT22;54794;48.348;7.878;2023-05-10T08:31:05;18.80;67.60
68011;DHT22;54794;48.348;7.878;2023-05-10T08:33:32;18.80;67.40
68011;DHT22;54794;48.348;7.878;2023-05-10T08:35:59;18.90;67.70
68011;DHT22;54794;48.348;7.878;2023-05-10T08:38:26;18.90;67.20
68011;DHT22;54794;48.348;7.878;2023-05-10T08:40:55;18.90;66.90
68011;DHT22;54794;48.348;7.878;2023-05-10T08:43:29;18.80;66.50
68011;DHT22;54794;48.348;7.878;2023-05-10T08:46:00;18.80;65.70
68011;DHT22;54794;48.348;7.878;2023-05-10T08:48:29;18.70;65.30
68011;DHT22;54794;48.348;7.878;2023-05-10T08:50:58;18.70;65.40
68011;DHT22;54794;48.348;7.878;2023-05-10T08:53:28;18.60;65.20
68011;DHT22;54794;48.348;7.878;2023-05-10T08:56:00;18.50;65.10
68011;DHT22;54794;48.348;7.878;2023-05-10T08:58:28;18.50;65.40
68011;DHT22;54794;48.348;7.878;2023-05-10T09:00:56;18.40;65.20
68011;DHT22;54794;48.348;7.878;2023-05-10T09:03:24;18.40;65.30
68011;DHT22;54794;48.348;7.878;2023-05-10T09:05:51;18.30;65.30
68011;DHT22;54794;48.348;7.878;2023-05-10T09:08:18;18.30;65.00
68011;DHT22;54794;48.348;7.878;2023-05-10T09:10:46;18.20;65.20
68011;DHT22;54794;48.348;7.878;2023-05-10T09:13:15;18.20;65.20
68011;DHT22;54794;48.348;7.878;2023-05-10T09:15:44;18.20;65.20
68011;DHT22;54794;48.348;7.878;2023-05-10T09:18:12;18.10;65.40
68011;DHT22;54794;48.348;7.878;2023-05-10T09:20:40;18.10;64.90
68011;DHT22;54794;48.348;7.878;2023-05-10T09:23:07;18.10;65.00
68011;DHT22;54794;48.348;7.878;2023-05-10T09:25:34;18.00;65.30
68011;DHT22;54794;48.348;7.878;2023-05-10T09:28:02;18.00;65.50
68011;DHT22;54794;48.348;7.878;2023-05-10T09:30:32;18.00;65.50
68011;DHT22;54794;48.348;7.878;2023-05-10T09:33:00;18.10;65.30
68011;DHT22;54794;48.348;7.878;2023-05-10T09:35:32;18.10;65.20
68011;DHT22;54794;48.348;7.878;2023-05-10T09:38:02;18.00;64.80
68011;DHT22;54794;48.348;7.878;2023-05-10T09:40:31;18.00;64.90
68011;DHT22;54794;48.348;7.878;2023-05-10T09:42:59;18.00;65.10
68011;DHT22;54794;48.348;7.878;2023-05-10T09:45:35;18.10;65.20
68011;DHT22;54794;48.348;7.878;2023-05-10T09:48:05;18.10;65.10
68011;DHT22;54794;48.348;7.878;2023-05-10T09:50:32;18.10;65.60
68011;DHT22;54794;48.348;7.878;2023-05-10T09:53:02;18.10;65.50
68011;DHT22;54794;48.348;7.878;2023-05-10T09:58:07;18.30;65.40
68011;DHT22;54794;48.348;7.878;2023-05-10T10:00:42;18.40;64.80
68011;DHT22;54794;48.348;7.878;2023-05-10T10:03:17;18.50;65.10
68011;DHT22;54794;48.348;7.878;2023-05-10T10:05:46;18.50;64.90
68011;DHT22;54794;48.348;7.878;2023-05-10T10:08:23;18.60;64.70
68011;DHT22;54794;48.348;7.878;2023-05-10T10:10:57;18.70;64.10
68011;DHT22;54794;48.348;7.878;2023-05-10T10:13:24;18.70;64.10
68011;DHT22;54794;48.348;7.878;2023-05-10T10:15:52;18.70;63.90
68011;DHT22;54794;48.348;7.878;2023-05-10T10:18:21;18.80;64.10
68011;DHT22;54794;48.348;7.878;2023-05-10T10:20:54;18.90;64.20
68011;DHT22;54794;48.348;7.878;2023-05-10T10:23:22;18.90;64.30
68011;DHT22;54794;48.348;7.878;2023-05-10T10:25:49;19.00;63.70
68011;DHT22;54794;48.348;7.878;2023-05-10T10:28:26;19.00;63.60
68011;DHT22;54794;48.348;7.878;2023-05-10T10:31:32;19.00;62.70
68011;DHT22;54794;48.348;7.878;2023-05-10T10:34:06;19.10;63.20
68011;DHT22;54794;48.348;7.878;2023-05-10T10:36:45;19.10;63.10
68011;DHT22;54794;48.348;7.878;2023-05-10T10:39:14;19.10;63.00
68011;DHT22;54794;48.348;7.878;2023-05-10T10:41:51;19.20;63.60
68011;DHT22;54794;48.348;7.878;2023-05-10T10:44:23;19.30;63.30
68011;DHT22;54794;48.348;7.878;2023-05-10T10:55:14;19.70;61.90
68011;DHT22;54794;48.348;7.878;2023-05-10T10:57:55;19.80;61.90
68011;DHT22;54794;48.348;7.878;2023-05-10T11:00:32;19.90;62.50
68011;DHT22;54794;48.348;7.878;2023-05-10T11:03:11;19.90;62.60
68011;DHT22;54794;48.348;7.878;2023-05-10T11:05:46;20.00;62.00
68011;DHT22;54794;48.348;7.878;2023-05-10T11:08:14;20.10;62.00
68011;DHT22;54794;48.348;7.878;2023-05-10T11:11:01;20.20;62.30
68011;DHT22;54794;48.348;7.878;2023-05-10T11:16:19;20.50;61.70
68011;DHT22;54794;48.348;7.878;2023-05-10T11:19:02;20.70;59.90
68011;DHT22;54794;48.348;7.878;2023-05-10T11:21:32;20.80;59.60
68011;DHT22;54794;48.348;7.878;2023-05-10T11:24:01;20.80;60.40
68011;DHT22;54794;48.348;7.878;2023-05-10T11:26:34;20.90;59.80
68011;DHT22;54794;48.348;7.878;2023-05-10T11:29:02;20.90;59.40
68011;DHT22;54794;48.348;7.878;2023-05-10T11:31:31;21.00;59.40
68011;DHT22;54794;48.348;7.878;2023-05-10T11:33:59;21.00;59.80
68011;DHT22;54794;48.348;7.878;2023-05-10T11:36:34;21.10;60.00
68011;DHT22;54794;48.348;7.878;2023-05-10T11:39:03;21.10;58.80
68011;DHT22;54794;48.348;7.878;2023-05-10T11:41:31;21.20;59.20
68011;DHT22;54794;48.348;7.878;2023-05-10T11:43:58;21.10;58.90
68011;DHT22;54794;48.348;7.878;2023-05-10T11:46:27;21.10;58.90
68011;DHT22;54794;48.348;7.878;2023-05-10T11:48:59;21.10;58.80
68011;DHT22;54794;48.348;7.878;2023-05-10T11:51:28;21.10;58.20
68011;DHT22;54794;48.348;7.878;2023-05-10T11:53:56;21.10;59.40
68011;DHT22;54794;48.348;7.878;2023-05-10T11:56:24;21.20;59.40
68011;DHT22;54794;48.348;7.878;2023-05-10T11:58:54;21.20;58.40
68011;DHT22;54794;48.348;7.878;2023-05-10T12:01:26;21.20;58.30
68011;DHT22;54794;48.348;7.878;2023-05-10T12:04:01;21.20;57.60
68011;DHT22;54794;48.348;7.878;2023-05-10T12:06:40;21.20;58.00
68011;DHT22;54794;48.348;7.878;2023-05-10T12:09:08;21.10;57.00
68011;DHT22;54794;48.348;7.878;2023-05-10T12:11:40;21.10;57.50
68011;DHT22;54794;48.348;7.878;2023-05-10T12:14:18;21.10;57.30
68011;DHT22;54794;48.348;7.878;2023-05-10T12:16:48;21.00;57.10
68011;DHT22;54794;48.348;7.878;2023-05-10T12:19:18;21.00;57.70
68011;DHT22;54794;48.348;7.878;2023-05-10T12:21:49;20.90;57.10
68011;DHT22;54794;48.348;7.878;2023-05-10T12:24:15;20.90;57.40
68011;DHT22;54794;48.348;7.878;2023-05-10T12:26:45;20.80;57.50
68011;DHT22;54794;48.348;7.878;2023-05-10T12:29:16;20.80;57.10
68011;DHT22;54794;48.348;7.878;2023-05-10T12:34:31;20.70;57.40
68011;DHT22;54794;48.348;7.878;2023-05-10T12:36:59;20.70;58.10
68011;DHT22;54794;48.348;7.878;2023-05-10T12:39:41;20.70;58.00
68011;DHT22;54794;48.348;7.878;2023-05-10T12:42:09;20.70;57.40
68011;DHT22;54794;48.348;7.878;2023-05-10T12:44:36;20.70;58.40
68011;DHT22;54794;48.348;7.878;2023-05-10T12:47:03;20.70;58.10
68011;DHT22;54794;48.348;7.878;2023-05-10T12:49:30;20.80;57.40
68011;DHT22;54794;48.348;7.878;2023-05-10T12:51:57;20.80;57.80
68011;DHT22;54794;48.348;7.878;2023-05-10T12:54:24;20.90;57.80
68011;DHT22;54794;48.348;7.878;2023-05-10T12:56:51;20.90;57.90
68011;DHT22;54794;48.348;7.878;2023-05-10T12:59:18;21.00;57.20
68011;DHT22;54794;48.348;7.878;2023-05-10T13:01:45;21.00;57.40
68011;DHT22;54794;48.348;7.878;2023-05-10T13:04:12;21.10;57.40
68011;DHT22;54794;48.348;7.878;2023-05-10T13:06:39;21.10;57.20
68011;DHT22;54794;48.348;7.878;2023-05-10T13:09:06;21.10;57.20
68011;DHT22;54794;48.348;7.878;2023-05-10T13:11:33;21.20;57.10
68011;DHT22;54794;48.348;7.878;2023-05-10T13:14:00;21.20;57.30
68011;DHT22;54794;48.348;7.878;2023-05-10T13:16:27;21.30;57.10
68011;DHT22;54794;48.348;7.878;2023-05-10T13:18:54;21.30;57.00
68011;DHT22;54794;48.348;7.878;2023-05-10T13:21:21;21.40;57.10
68011;DHT22;54794;48.348;7.878;2023-05-10T13:23:48;21.50;56.90
68011;DHT22;54794;48.348;7.878;2023-05-10T13:26:14;21.60;56.90
68011;DHT22;54794;48.348;7.878;2023-05-10T13:28:43;21.80;57.00
68011;DHT22;54794;48.348;7.878;2023-05-10T13:31:10;22.00;56.70
68011;DHT22;54794;48.348;7.878;2023-05-10T13:33:37;22.20;56.30
68011;DHT22;54794;48.348;7.878;2023-05-10T13:36:04;22.30;56.30
68011;DHT22;54794;48.348;7.878;2023-05-10T13:38:31;22.40;55.50
68011;DHT22;54794;48.348;7.878;2023-05-10T13:40:58;22.50;56.00
68011;DHT22;54794;48.348;7.878;2023-05-10T13:43:25;22.50;56.30
68011;DHT22;54794;48.348;7.878;2023-05-10T13:45:52;22.70;55.70
68011;DHT22;54794;48.348;7.878;2023-05-10T13:48:19;22.70;55.70
68011;DHT22;54794;48.348;7.878;2023-05-10T13:50:46;22.80;55.20
68011;DHT22;54794;48.348;7.878;2023-05-10T13:53:13;22.90;55.20
68011;DHT22;54794;48.348;7.878;2023-05-10T13:55:41;22.90;54.30
68011;DHT22;54794;48.348;7.878;2023-05-10T13:58:08;23.00;55.00
68011;DHT22;54794;48.348;7.878;2023-05-10T14:00:35;23.10;54.60
68011;DHT22;54794;48.348;7.878;2023-05-10T14:03:02;23.10;54.90
68011;DHT22;54794;48.348;7.878;2023-05-10T14:05:29;23.20;54.80
68011;DHT22;54794;48.348;7.878;2023-05-10T14:07:55;23.20;54.20
68011;DHT22;54794;48.348;7.878;2023-05-10T14:10:23;23.20;54.00
68011;DHT22;54794;48.348;7.878;2023-05-10T14:12:50;23.20;54.20
68011;DHT22;54794;48.348;7.878;2023-05-10T14:15:17;23.10;54.10
68011;DHT22;54794;48.348;7.878;2023-05-10T14:17:44;23.00;53.60
68011;DHT22;54794;48.348;7.878;2023-05-10T14:20:11;22.90;53.70
68011;DHT22;54794;48.348;7.878;2023-05-10T14:22:38;22.80;53.80
68011;DHT22;54794;48.348;7.878;2023-05-10T14:25:07;22.60;53.90
68011;DHT22;54794;48.348;7.878;2023-05-10T14:27:34;22.60;53.40
68011;DHT22;54794;48.348;7.878;2023-05-10T14:30:01;22.50;53.70
68011;DHT22;54794;48.348;7.878;2023-05-10T14:32:28;22.30;53.50
68011;DHT22;54794;48.348;7.878;2023-05-10T14:34:55;22.20;53.40
68011;DHT22;54794;48.348;7.878;2023-05-10T14:37:22;22.00;53.70
68011;DHT22;54794;48.348;7.878;2023-05-10T14:39:50;21.90;53.50
68011;DHT22;54794;48.348;7.878;2023-05-10T14:42:17;21.70;54.60
68011;DHT22;54794;48.348;7.878;2023-05-10T14:44:45;21.70;54.80
68011;DHT22;54794;48.348;7.878;2023-05-10T14:47:12;21.60;54.70
68011;DHT22;54794;48.348;7.878;2023-05-10T14:49:40;21.50;54.60
68011;DHT22;54794;48.348;7.878;2023-05-10T14:52:08;21.40;54.40
68011;DHT22;54794;48.348;7.878;2023-05-10T14:54:35;21.30;54.30
68011;DHT22;54794;48.348;7.878;2023-05-10T14:57:02;21.20;54.40
68011;DHT22;54794;48.348;7.878;2023-05-10T14:59:28;21.10;54.70
68011;DHT22;54794;48.348;7.878;2023-05-10T15:02:14;21.10;54.90
68011;DHT22;54794;48.348;7.878;2023-05-10T15:04:47;21.00;54.60
68011;DHT22;54794;48.348;7.878;2023-05-10T15:07:17;21.00;54.70
68011;DHT22;54794;48.348;7.878;2023-05-10T15:09:45;21.00;55.10
68011;DHT22;54794;48.348;7.878;2023-05-10T15:12:20;20.90;55.10
68011;DHT22;54794;48.348;7.878;2023-05-10T15:14:56;20.90;55.30
68011;DHT22;54794;48.348;7.878;2023-05-10T15:17:33;20.80;55.00
68011;DHT22;54794;48.348;7.878;2023-05-10T15:20:01;20.80;55.30
68011;DHT22;54794;48.348;7.878;2023-05-10T15:22:31;20.70;55.10
68011;DHT22;54794;48.348;7.878;2023-05-10T15:25:00;20.60;55.60
68011;DHT22;54794;48.348;7.878;2023-05-10T15:27:27;20.50;55.00
68011;DHT22;54794;48.348;7.878;2023-05-10T15:29:53;20.30;55.20
68011;DHT22;54794;48.348;7.878;2023-05-10T15:32:20;20.20;55.20
68011;DHT22;54794;48.348;7.878;2023-05-10T15:34:47;20.10;55.30
68011;DHT22;54794;48.348;7.878;2023-05-10T15:37:14;20.00;55.60
68011;DHT22;54794;48.348;7.878;2023-05-10T15:39:41;19.90;55.90
68011;DHT22;54794;48.348;7.878;2023-05-10T15:42:08;19.80;56.10
68011;DHT22;54794;48.348;7.878;2023-05-10T15:44:35;19.70;56.40
68011;DHT22;54794;48.348;7.878;2023-05-10T15:47:05;19.60;56.60
68011;DHT22;54794;48.348;7.878;2023-05-10T15:49:32;19.50;56.80
68011;DHT22;54794;48.348;7.878;2023-05-10T15:51:59;19.50;57.00
68011;DHT22;54794;48.348;7.878;2023-05-10T15:54:26;19.40;57.10
68011;DHT22;54794;48.348;7.878;2023-05-10T15:56:53;19.40;57.30
68011;DHT22;54794;48.348;7.878;2023-05-10T15:59:20;19.40;57.50
68011;DHT22;54794;48.348;7.878;2023-05-10T16:01:47;19.30;57.60
68011;DHT22;54794;48.348;7.878;2023-05-10T16:04:15;19.30;57.60
68011;DHT22;54794;48.348;7.878;2023-05-10T16:06:42;19.30;58.30
68011;DHT22;54794;48.348;7.878;2023-05-10T16:09:09;19.30;57.90
68011;DHT22;54794;48.348;7.878;2023-05-10T16:11:36;19.30;57.90
68011;DHT22;54794;48.348;7.878;2023-05-10T16:14:03;19.20;57.90
68011;DHT22;54794;48.348;7.878;2023-05-10T16:16:32;19.20;57.90
68011;DHT22;54794;48.348;7.878;2023-05-10T16:18:59;19.20;58.00
68011;DHT22;54794;48.348;7.878;2023-05-10T16:21:29;19.20;58.30
68011;DHT22;54794;48.348;7.878;2023-05-10T16:23:59;19.10;58.30
68011;DHT22;54794;48.348;7.878;2023-05-10T16:26:26;19.20;58.50